createdAt,value
2023-11-24T00:00:10.643Z,7.75
2023-11-24T00:02:41.629Z,7.47
2023-11-24T00:05:11.441Z,7.70
2023-11-24T00:07:40.858Z,8.00
2023-11-24T00:10:10.507Z,6.70
2023-11-24T00:12:38.976Z,6.60
2023-11-24T00:15:08.310Z,6.60
2023-11-24T00:17:39.267Z,6.35
2023-11-24T00:20:11.675Z,6.50
2023-11-24T00:22:40.165Z,6.30
2023-11-24T00:25:10.408Z,6.40
2023-11-24T00:27:38.952Z,6.53
2023-11-24T00:30:09.347Z,5.97
2023-11-24T00:32:37.799Z,6.82
2023-11-24T00:35:07.953Z,6.35
2023-11-24T00:37:37.725Z,7.32
2023-11-24T00:40:09.278Z,6.82
2023-11-24T00:42:37.781Z,6.78
2023-11-24T00:45:08.056Z,5.95
2023-11-24T00:47:36.463Z,5.80
2023-11-24T00:50:06.944Z,6.65
2023-11-24T00:55:05.919Z,6.30
2023-11-24T00:57:34.871Z,6.78
2023-11-24T01:00:05.840Z,6.32
2023-11-24T01:02:34.663Z,6.05
2023-11-24T01:05:03.219Z,5.30
2023-11-24T01:07:31.913Z,4.78
2023-11-24T01:10:00.595Z,5.05
2023-11-24T01:12:30.630Z,4.40
2023-11-24T01:14:58.987Z,4.75
2023-11-24T01:17:27.362Z,5.07
2023-11-24T01:19:55.742Z,5.07
2023-11-24T01:22:25.889Z,5.05
2023-11-24T01:24:54.279Z,4.88
2023-11-24T01:27:22.680Z,5.50
2023-11-24T01:29:52.675Z,5.50
2023-11-24T01:32:21.111Z,4.90
2023-11-24T01:34:49.384Z,5.43
2023-11-24T01:37:17.727Z,4.05
2023-11-24T01:39:46.258Z,3.92
2023-11-24T01:42:14.780Z,4.40
2023-11-24T01:44:43.488Z,4.60
2023-11-24T01:47:13.823Z,4.65
2023-11-24T01:49:42.274Z,4.32
2023-11-24T01:52:10.861Z,4.35
2023-11-24T01:54:40.373Z,4.90
2023-11-24T01:57:09.553Z,4.43
2023-11-24T01:59:38.797Z,4.97
2023-11-24T02:02:07.670Z,5.55
2023-11-24T02:04:37.474Z,4.78
2023-11-24T02:07:06.281Z,4.90
2023-11-24T02:09:35.414Z,5.07
2023-11-24T02:12:03.755Z,5.65
2023-11-24T02:14:33.133Z,5.10
2023-11-24T02:17:01.597Z,4.68
2023-11-24T02:19:30.345Z,5.07
2023-11-24T02:22:00.086Z,5.20
2023-11-24T02:24:30.469Z,5.28
2023-11-24T02:27:00.366Z,4.82
2023-11-24T02:29:29.301Z,4.80
2023-11-24T02:31:57.653Z,4.90
2023-11-24T02:34:26.007Z,4.80
2023-11-24T02:36:54.386Z,5.25
2023-11-24T02:39:24.190Z,4.72
2023-11-24T02:41:54.219Z,4.53
2023-11-24T02:44:22.861Z,4.70
2023-11-24T02:46:51.378Z,5.38
2023-11-24T02:49:20.169Z,4.63
2023-11-24T02:51:48.822Z,4.43
2023-11-24T02:54:17.968Z,4.63
2023-11-24T02:56:46.261Z,3.97
2023-11-24T02:59:16.099Z,4.50
2023-11-24T03:01:44.506Z,4.72
2023-11-24T03:04:13.428Z,4.40
2023-11-24T03:06:43.229Z,4.72
2023-11-24T03:09:11.676Z,4.43
2023-11-24T03:11:40.289Z,4.53
2023-11-24T03:14:08.675Z,4.47
2023-11-24T03:16:38.445Z,4.57
2023-11-24T03:19:06.889Z,3.97
2023-11-24T03:21:35.284Z,4.18
2023-11-24T03:24:04.840Z,4.68
2023-11-24T03:26:33.109Z,4.22
2023-11-24T03:29:01.429Z,4.15
2023-11-24T03:31:30.053Z,4.68
2023-11-24T03:33:59.833Z,4.47
2023-11-24T03:36:28.319Z,4.78
2023-11-24T03:38:56.664Z,5.35
2023-11-24T03:41:24.960Z,4.00
2023-11-24T03:43:53.486Z,4.00
2023-11-24T03:46:22.067Z,4.20
2023-11-24T03:48:50.550Z,4.22
2023-11-24T03:51:22.056Z,3.90
2023-11-24T03:53:50.388Z,4.00
2023-11-24T03:56:19.184Z,4.15
2023-11-24T03:58:47.702Z,4.63
2023-11-24T04:01:16.585Z,4.80
2023-11-24T04:03:47.655Z,5.00
2023-11-24T04:06:16.665Z,5.35
2023-11-24T04:08:46.597Z,4.43
2023-11-24T04:11:15.476Z,5.32
2023-11-24T04:13:43.778Z,5.00
2023-11-24T04:16:12.124Z,4.60
2023-11-24T04:18:40.742Z,4.13
2023-11-24T04:21:09.863Z,4.43
2023-11-24T04:23:38.243Z,4.03
2023-11-24T04:26:08.459Z,3.90
2023-11-24T04:28:36.778Z,3.83
2023-11-24T04:31:05.393Z,4.70
2023-11-24T04:33:34.041Z,4.63
2023-11-24T04:36:02.400Z,4.50
2023-11-24T04:38:30.796Z,4.05
2023-11-24T04:40:59.161Z,4.95
2023-11-24T04:43:28.840Z,4.50
2023-11-24T04:45:57.577Z,4.97
2023-11-24T04:48:25.993Z,4.90
2023-11-24T04:50:54.559Z,5.10
2023-11-24T04:53:23.591Z,4.35
2023-11-24T04:55:51.912Z,4.05
2023-11-24T04:58:20.305Z,4.95
2023-11-24T05:00:50.028Z,4.85
2023-11-24T05:03:18.393Z,4.63
2023-11-24T05:05:46.683Z,5.15
2023-11-24T05:08:15.578Z,4.22
2023-11-24T05:10:44.088Z,5.18
2023-11-24T05:13:12.488Z,4.55
2023-11-24T05:15:40.925Z,5.28
2023-11-24T05:18:10.687Z,5.15
2023-11-24T05:20:39.561Z,4.80
2023-11-24T05:23:08.032Z,4.80
2023-11-24T05:25:36.569Z,4.25
2023-11-24T05:28:05.352Z,5.20
2023-11-24T05:30:33.762Z,4.78
2023-11-24T05:33:02.423Z,5.32
2023-11-24T05:35:32.306Z,5.28
2023-11-24T05:38:00.642Z,4.88
2023-11-24T05:40:29.562Z,5.97
2023-11-24T05:42:57.937Z,5.10
2023-11-24T05:45:26.318Z,5.60
2023-11-24T05:47:54.701Z,4.78
2023-11-24T05:50:24.161Z,5.25
2023-11-24T05:52:53.918Z,5.20
2023-11-24T05:55:22.410Z,5.43
2023-11-24T05:57:51.052Z,5.03
2023-11-24T06:00:20.233Z,5.22
2023-11-24T06:02:48.624Z,4.68
2023-11-24T06:05:17.930Z,4.75
2023-11-24T06:07:48.433Z,3.80
2023-11-24T06:10:20.130Z,4.97
2023-11-24T06:12:48.496Z,4.95
2023-11-24T06:15:16.995Z,4.78
2023-11-24T06:17:45.314Z,4.65
2023-11-24T06:20:14.036Z,4.57
2023-11-24T06:22:45.149Z,4.85
2023-11-24T06:25:16.198Z,5.43
2023-11-24T06:27:46.701Z,4.90
2023-11-24T06:30:15.467Z,4.40
2023-11-24T06:32:43.759Z,5.78
2023-11-24T06:35:12.218Z,5.50
2023-11-24T06:37:42.029Z,6.05
2023-11-24T06:40:13.164Z,5.55
2023-11-24T06:42:42.078Z,5.93
2023-11-24T06:45:14.232Z,5.40
2023-11-24T06:47:43.338Z,5.50
2023-11-24T06:50:13.424Z,5.88
2023-11-24T06:52:42.480Z,5.38
2023-11-24T06:55:12.405Z,6.05
2023-11-24T06:57:40.998Z,5.57
2023-11-24T07:00:18.576Z,5.43
2023-11-24T07:02:47.576Z,4.88
2023-11-24T07:05:16.152Z,4.68
2023-11-24T07:07:44.618Z,4.28
2023-11-24T07:10:14.835Z,4.38
2023-11-24T07:12:45.151Z,4.22
2023-11-24T07:15:15.243Z,3.95
2023-11-24T07:17:44.501Z,4.30
2023-11-24T07:20:14.054Z,3.67
2023-11-24T07:22:44.045Z,3.83
2023-11-24T07:25:15.164Z,3.70
2023-11-24T07:27:43.820Z,3.83
2023-11-24T07:30:15.447Z,3.55
2023-11-24T07:32:43.954Z,4.40
2023-11-24T07:35:15.355Z,4.85
2023-11-24T07:37:43.901Z,4.95
2023-11-24T07:40:16.012Z,5.10
2023-11-24T07:42:46.136Z,5.07
2023-11-24T07:45:16.860Z,5.20
2023-11-24T07:47:45.772Z,5.78
2023-11-24T07:50:14.195Z,6.00
2023-11-24T07:52:45.160Z,6.03
2023-11-24T07:55:15.042Z,5.60
2023-11-24T07:57:44.125Z,5.45
2023-11-24T08:00:14.839Z,5.35
2023-11-24T08:02:44.952Z,4.93
2023-11-24T08:05:13.795Z,4.13
2023-11-24T08:07:42.194Z,3.85
2023-11-24T08:10:11.616Z,3.67
2023-11-24T08:12:39.959Z,4.38
2023-11-24T08:15:10.741Z,3.97
2023-11-24T08:17:40.104Z,4.55
2023-11-24T08:20:12.394Z,4.00
2023-11-24T08:22:41.278Z,4.10
2023-11-24T08:25:11.247Z,4.50
2023-11-24T08:27:39.898Z,4.55
2023-11-24T08:30:12.842Z,4.20
2023-11-24T08:32:45.510Z,4.47
2023-11-24T08:35:16.576Z,5.78
2023-11-24T08:37:45.133Z,5.30
2023-11-24T08:40:18.032Z,5.15
2023-11-24T08:42:46.974Z,4.93
2023-11-24T08:45:17.748Z,4.55
2023-11-24T08:47:47.944Z,4.78
2023-11-24T08:50:19.314Z,4.47
2023-11-24T08:52:49.264Z,6.35
2023-11-24T08:55:18.146Z,5.35
2023-11-24T08:57:46.797Z,5.30
2023-11-24T09:00:16.550Z,4.53
2023-11-24T09:02:46.092Z,5.57
2023-11-24T09:05:14.613Z,4.90
2023-11-24T09:07:45.719Z,5.93
2023-11-24T09:10:16.113Z,6.05
2023-11-24T09:12:44.752Z,5.60
2023-11-24T09:15:13.163Z,6.57
2023-11-24T09:17:41.502Z,5.60
2023-11-24T09:20:13.342Z,6.18
2023-11-24T09:22:42.997Z,6.63
2023-11-24T09:25:13.000Z,5.67
2023-11-24T09:27:41.431Z,6.10
2023-11-24T09:30:11.943Z,5.95
2023-11-24T09:35:12.323Z,6.15
2023-11-24T09:37:40.864Z,5.90
2023-11-24T09:40:17.382Z,6.65
2023-11-24T09:42:48.583Z,6.07
2023-11-24T09:45:20.771Z,5.78
2023-11-24T09:47:53.033Z,6.15
2023-11-24T09:50:25.960Z,5.70
2023-11-24T09:52:56.940Z,5.78
2023-11-24T09:55:30.112Z,5.93
2023-11-24T09:57:59.504Z,6.07
2023-11-24T10:00:29.236Z,6.22
2023-11-24T10:03:01.837Z,5.82
2023-11-24T10:05:31.750Z,6.45
2023-11-24T10:08:02.105Z,6.25
2023-11-24T10:10:32.169Z,5.10
2023-11-24T10:13:04.128Z,5.05
2023-11-24T10:15:33.575Z,4.95
2023-11-24T10:18:03.380Z,4.95
2023-11-24T10:20:32.730Z,5.38
2023-11-24T10:23:02.071Z,5.20
2023-11-24T10:25:35.251Z,4.63
2023-11-24T10:28:07.934Z,5.10
2023-11-24T10:30:36.436Z,4.47
2023-11-24T10:33:06.457Z,4.65
2023-11-24T10:35:34.902Z,4.22
2023-11-24T10:38:04.029Z,3.58
2023-11-24T10:40:34.834Z,3.00
2023-11-24T10:43:05.825Z,3.80
2023-11-24T10:45:36.092Z,3.85
2023-11-24T10:48:11.948Z,3.70
2023-11-24T10:50:44.177Z,4.50
2023-11-24T10:53:22.813Z,5.18
2023-11-24T10:55:55.641Z,5.60
2023-11-24T10:58:24.215Z,5.30
2023-11-24T11:00:52.940Z,5.57
2023-11-24T11:03:21.287Z,5.25
2023-11-24T11:06:05.239Z,6.18
2023-11-24T11:08:40.027Z,5.03
2023-11-24T11:11:46.178Z,6.07
2023-11-24T11:14:15.914Z,5.85
2023-11-24T11:16:46.139Z,5.60
2023-11-24T11:19:33.393Z,5.90
2023-11-24T11:22:02.753Z,5.13
2023-11-24T11:24:31.411Z,5.00
2023-11-24T11:27:01.099Z,4.80
2023-11-24T11:29:33.394Z,5.67
2023-11-24T11:32:03.592Z,5.72
2023-11-24T11:34:33.322Z,5.90
2023-11-24T11:37:08.334Z,5.87
2023-11-24T11:39:51.208Z,6.55
2023-11-24T11:42:23.386Z,6.18
2023-11-24T11:44:58.200Z,6.22
2023-11-24T11:47:28.006Z,7.22
2023-11-24T11:49:58.933Z,5.32
2023-11-24T11:52:29.876Z,5.60
2023-11-24T11:55:01.934Z,5.60
2023-11-24T11:57:31.765Z,8.63
2023-11-24T12:00:00.227Z,5.60
2023-11-24T12:02:28.830Z,5.47
2023-11-24T12:04:57.829Z,5.35
2023-11-24T12:07:27.555Z,7.38
2023-11-24T12:09:56.125Z,6.65
2023-11-24T12:12:25.272Z,6.45
2023-11-24T12:14:56.093Z,5.80
2023-11-24T12:17:25.258Z,7.50
2023-11-24T12:19:55.067Z,6.97
2023-11-24T12:22:24.646Z,6.55
2023-11-24T12:24:54.274Z,6.13
2023-11-24T12:27:23.255Z,6.47
2023-11-24T12:29:52.801Z,6.70
2023-11-24T12:32:27.824Z,7.10
2023-11-24T12:35:00.912Z,7.57
2023-11-24T12:37:30.094Z,6.80
2023-11-24T12:39:58.583Z,6.22
2023-11-24T12:42:30.486Z,6.60
2023-11-24T12:45:00.414Z,6.65
2023-11-24T12:50:07.720Z,6.65
2023-11-24T12:52:37.318Z,7.93
2023-11-24T12:55:08.642Z,7.15
2023-11-24T12:57:39.294Z,7.20
2023-11-24T13:00:14.151Z,6.90
2023-11-24T13:02:44.571Z,5.90
2023-11-24T13:05:14.737Z,5.85
2023-11-24T13:07:43.935Z,6.28
2023-11-24T13:10:13.107Z,6.65
2023-11-24T13:12:43.149Z,6.47
2023-11-24T13:15:12.186Z,6.13
2023-11-24T13:17:40.812Z,6.38
2023-11-24T13:20:13.211Z,6.35
2023-11-24T13:22:43.459Z,7.20
2023-11-24T13:25:12.827Z,6.70
2023-11-24T13:27:42.874Z,6.38
2023-11-24T13:30:13.606Z,6.60
2023-11-24T13:32:43.404Z,6.32
2023-11-24T13:35:15.468Z,7.60
2023-11-24T13:37:45.961Z,7.03
2023-11-24T13:40:14.786Z,6.40
2023-11-24T13:42:43.685Z,6.75
2023-11-24T13:45:13.509Z,5.45
2023-11-24T13:47:42.905Z,5.68
2023-11-24T13:50:14.977Z,6.75
2023-11-24T13:52:45.126Z,6.70
2023-11-24T13:55:14.794Z,6.90
2023-11-24T13:57:43.225Z,4.80
2023-11-24T14:00:13.147Z,5.40
2023-11-24T14:02:42.443Z,5.38
2023-11-24T14:05:14.299Z,4.80
2023-11-24T14:07:45.707Z,4.95
2023-11-24T14:10:19.106Z,5.53
2023-11-24T14:12:49.695Z,5.43
2023-11-24T14:15:18.395Z,5.45
2023-11-24T14:17:46.868Z,6.43
2023-11-24T14:20:17.489Z,6.22
2023-11-24T14:22:47.175Z,6.22
2023-11-24T14:25:15.913Z,5.07
2023-11-24T14:27:44.315Z,5.40
2023-11-24T14:30:14.167Z,5.50
2023-11-24T14:32:43.205Z,5.28
2023-11-24T14:35:12.781Z,5.75
2023-11-24T14:37:42.651Z,6.00
2023-11-24T14:40:20.269Z,5.03
2023-11-24T14:42:51.651Z,4.10
2023-11-24T14:45:21.889Z,5.18
2023-11-24T14:47:51.383Z,4.50
2023-11-24T14:50:26.461Z,4.50
2023-11-24T14:52:58.852Z,4.60
2023-11-24T14:55:29.828Z,4.07
2023-11-24T14:58:00.452Z,4.45
2023-11-24T15:03:08.349Z,4.28
2023-11-24T15:05:39.637Z,4.32
2023-11-24T15:08:10.920Z,4.45
2023-11-24T15:10:42.889Z,4.68
2023-11-24T15:13:11.777Z,4.65
2023-11-24T15:15:41.168Z,4.72
2023-11-24T15:18:11.083Z,5.45
2023-11-24T15:20:41.558Z,5.75
2023-11-24T15:23:12.672Z,5.55
2023-11-24T15:25:49.362Z,6.13
2023-11-24T15:28:22.797Z,4.40
2023-11-24T15:30:53.653Z,4.45
2023-11-24T15:33:22.853Z,4.72
2023-11-24T15:35:53.090Z,5.30
2023-11-24T15:38:24.409Z,5.93
2023-11-24T15:40:53.873Z,6.53
2023-11-24T15:43:23.243Z,6.70
2023-11-24T15:45:55.180Z,7.65
2023-11-24T15:48:24.544Z,8.05
2023-11-24T15:50:53.773Z,7.47
2023-11-24T15:53:23.685Z,8.25
2023-11-24T15:55:52.781Z,7.35
2023-11-24T15:58:26.172Z,7.57
2023-11-24T16:00:57.758Z,7.22
2023-11-24T16:03:26.728Z,8.18
2023-11-24T16:05:59.104Z,6.32
2023-11-24T16:08:34.400Z,5.35
2023-11-24T16:11:11.061Z,5.15
2023-11-24T16:13:42.712Z,6.03
2023-11-24T16:16:12.097Z,6.25
2023-11-24T16:18:43.265Z,6.45
2023-11-24T16:21:11.768Z,7.40
2023-11-24T16:23:41.953Z,6.85
2023-11-24T16:26:11.241Z,6.28
2023-11-24T16:28:40.264Z,5.72
2023-11-24T16:31:09.032Z,5.47
2023-11-24T16:33:38.898Z,5.63
2023-11-24T16:36:09.599Z,6.18
2023-11-24T16:41:08.261Z,7.03
2023-11-24T16:43:36.556Z,6.28
2023-11-24T16:46:09.301Z,6.88
2023-11-24T16:48:41.634Z,6.20
2023-11-24T16:51:09.955Z,6.18
2023-11-24T16:53:38.254Z,6.45
2023-11-24T16:56:08.511Z,6.05
2023-11-24T16:58:36.870Z,6.22
2023-11-24T17:01:05.298Z,6.32
2023-11-24T17:03:37.429Z,6.15
2023-11-24T17:06:06.354Z,6.22
2023-11-24T17:08:34.732Z,5.68
2023-11-24T17:11:07.268Z,6.38
2023-11-24T17:13:37.229Z,5.25
2023-11-24T17:16:07.487Z,5.78
2023-11-24T17:18:37.403Z,6.18
2023-11-24T17:21:06.624Z,6.43
2023-11-24T17:23:36.171Z,6.07
2023-11-24T17:26:04.548Z,5.47
2023-11-24T17:28:32.987Z,5.38
2023-11-24T17:31:05.448Z,4.80
2023-11-24T17:33:34.935Z,5.50
2023-11-24T17:36:04.633Z,5.80
2023-11-24T17:38:32.932Z,5.43
2023-11-24T17:41:02.010Z,6.22
2023-11-24T17:43:30.440Z,6.32
2023-11-24T17:45:59.033Z,6.78
2023-11-24T17:48:28.708Z,7.63
2023-11-24T17:50:57.009Z,8.03
2023-11-24T17:53:25.349Z,7.22
2023-11-24T17:55:53.683Z,6.70
2023-11-24T17:58:22.087Z,5.35
2023-11-24T18:00:51.146Z,5.03
2023-11-24T18:03:19.637Z,6.60
2023-11-24T18:05:49.554Z,6.18
2023-11-24T18:08:22.073Z,6.90
2023-11-24T18:10:50.747Z,6.75
2023-11-24T18:13:19.361Z,6.63
2023-11-24T18:15:47.898Z,6.47
2023-11-24T18:18:16.763Z,6.80
2023-11-24T18:20:46.711Z,6.95
2023-11-24T18:23:16.399Z,6.53
2023-11-24T18:25:45.108Z,7.13
2023-11-24T18:28:15.581Z,7.00
2023-11-24T18:30:44.401Z,7.45
2023-11-24T18:33:12.832Z,7.50
2023-11-24T18:35:41.150Z,7.97
2023-11-24T18:38:10.135Z,7.75
2023-11-24T18:40:40.088Z,7.00
2023-11-24T18:43:08.557Z,8.10
2023-11-24T18:45:36.876Z,7.07
2023-11-24T18:48:06.598Z,7.40
2023-11-24T18:50:34.949Z,7.38
2023-11-24T18:53:03.691Z,6.68
2023-11-24T18:55:32.252Z,7.18
2023-11-24T18:58:02.063Z,7.30
2023-11-24T19:00:30.544Z,7.15
2023-11-24T19:03:01.233Z,6.53
2023-11-24T19:07:57.901Z,7.82
2023-11-24T19:10:26.408Z,7.65
2023-11-24T19:12:55.987Z,6.43
2023-11-24T19:15:25.728Z,7.07
2023-11-24T19:17:55.063Z,6.77
2023-11-24T19:20:23.605Z,6.72
2023-11-24T19:22:51.914Z,7.50
2023-11-24T19:25:20.472Z,6.25
2023-11-24T19:27:48.832Z,6.78
2023-11-24T19:30:17.549Z,7.53
2023-11-24T19:32:47.514Z,6.35
2023-11-24T19:35:16.041Z,6.53
2023-11-24T19:37:45.658Z,7.00
2023-11-24T19:40:15.427Z,7.72
2023-11-24T19:42:43.876Z,7.45
2023-11-24T19:45:12.475Z,6.25
2023-11-24T19:47:40.799Z,5.13
2023-11-24T19:50:11.558Z,5.88
2023-11-24T19:55:10.114Z,6.15
2023-11-24T19:57:38.484Z,7.05
2023-11-24T20:00:09.179Z,7.00
2023-11-24T20:02:37.735Z,6.80
2023-11-24T20:05:07.739Z,6.40
2023-11-24T20:07:37.514Z,6.30
2023-11-24T20:10:07.958Z,5.40
2023-11-24T20:12:36.375Z,5.35
2023-11-24T20:15:05.457Z,6.05
2023-11-24T20:17:34.928Z,5.47
2023-11-24T20:20:04.483Z,5.60
2023-11-24T20:22:32.885Z,6.35
2023-11-24T20:25:04.559Z,6.13
2023-11-24T20:27:33.041Z,5.25
2023-11-24T20:30:01.554Z,5.32
2023-11-24T20:32:29.923Z,5.85
2023-11-24T20:34:58.840Z,5.95
2023-11-24T20:37:27.466Z,5.80
2023-11-24T20:39:57.198Z,6.43
2023-11-24T20:42:27.171Z,5.80
2023-11-24T20:44:55.504Z,7.72
2023-11-24T20:47:23.810Z,6.95
2023-11-24T20:49:52.558Z,7.78
2023-11-24T20:52:21.500Z,8.93
2023-11-24T20:54:51.158Z,7.00
2023-11-24T20:57:19.482Z,7.72
2023-11-24T20:59:49.140Z,8.20
2023-11-24T21:02:18.464Z,7.73
2023-11-24T21:04:47.329Z,7.60
2023-11-24T21:07:17.260Z,8.10
2023-11-24T21:09:45.679Z,6.93
2023-11-24T21:12:14.157Z,7.07
2023-11-24T21:14:42.487Z,6.72
2023-11-24T21:17:12.178Z,6.65
2023-11-24T21:19:41.003Z,6.20
2023-11-24T21:22:09.640Z,6.95
2023-11-24T21:24:39.185Z,6.47
2023-11-24T21:27:07.673Z,5.80
2023-11-24T21:29:36.046Z,5.28
2023-11-24T21:32:05.448Z,7.03
2023-11-24T21:34:35.174Z,6.88
2023-11-24T21:37:04.274Z,6.43
2023-11-24T21:39:32.630Z,6.47
2023-11-24T21:42:00.970Z,6.53
2023-11-24T21:44:29.788Z,7.03
2023-11-24T21:46:58.335Z,7.15
2023-11-24T21:49:27.121Z,7.15
2023-11-24T21:51:56.973Z,6.78
2023-11-24T21:54:25.714Z,6.32
2023-11-24T21:56:54.276Z,6.30
2023-11-24T21:59:22.787Z,6.30
2023-11-24T22:01:51.153Z,4.75
2023-11-24T22:04:19.649Z,4.60
2023-11-24T22:06:48.622Z,5.05
2023-11-24T22:09:20.628Z,4.18
2023-11-24T22:11:49.646Z,4.45
2023-11-24T22:14:19.337Z,4.93
2023-11-24T22:16:47.703Z,4.73
2023-11-24T22:19:17.812Z,5.45
2023-11-24T22:21:47.934Z,4.97
2023-11-24T22:24:17.696Z,3.90
2023-11-24T22:26:46.476Z,4.30
2023-11-24T22:29:15.463Z,3.67
2023-11-24T22:31:43.936Z,3.60
2023-11-24T22:34:12.498Z,4.07
2023-11-24T22:36:40.923Z,4.22
2023-11-24T22:39:09.518Z,4.70
2023-11-24T22:41:39.529Z,4.22
2023-11-24T22:44:10.158Z,4.80
2023-11-24T22:49:06.986Z,4.93
2023-11-24T22:51:35.309Z,5.60
2023-11-24T22:54:04.185Z,6.30
2023-11-24T22:56:33.217Z,5.97
2023-11-24T22:59:03.092Z,5.97
2023-11-24T23:01:31.654Z,5.70
2023-11-24T23:04:01.904Z,5.65
2023-11-24T23:06:30.509Z,5.57
2023-11-24T23:08:59.594Z,5.93
2023-11-24T23:11:30.167Z,6.10
2023-11-24T23:16:30.372Z,5.50
2023-11-24T23:18:59.482Z,5.35
2023-11-24T23:21:27.820Z,5.55
2023-11-24T23:23:56.567Z,5.97
2023-11-24T23:26:26.351Z,5.90
2023-11-24T23:28:55.031Z,6.53
2023-11-24T23:31:25.738Z,4.72
2023-11-24T23:33:57.402Z,4.70
2023-11-24T23:36:25.861Z,4.93
2023-11-24T23:38:54.241Z,5.75
2023-11-24T23:41:22.581Z,5.43
2023-11-24T23:43:51.009Z,5.72
2023-11-24T23:46:19.508Z,6.70
2023-11-24T23:48:48.746Z,6.80
2023-11-24T23:51:18.840Z,5.93
2023-11-24T23:53:47.325Z,6.20
2023-11-24T23:56:15.807Z,6.57
2023-11-24T23:58:44.982Z,6.47
